< Cyclone 201706 2017 Season Cyclone 201719 >
Cyclone 201707 (Yvette)
General InformationTrack Information on Google MapsDetailed Wind InformationList of All Images || ResourceGoogle EarthGE AnimationAtom FeedGeoJSON
Detalied Best Track (Time Zone = UTC)
Year Month Day Hour Lat. Long. Pressure (hPa) Wind (kt) Class Image Chart
2016 12 18 12 -14.9 116.0 996 30 2 Image --
2016 12 18 18 -15.1 115.7 996 30 2 Image --
2016 12 19 00 -15.5 115.3 995 40 3 Image --
2016 12 19 06 -15.6 115.0 991 40 3 Image --
2016 12 19 12 -15.5 114.6 996 35 3 Image --
2016 12 19 18 -15.5 113.6 995 35 3 Image --
2016 12 20 00 -14.7 113.2 995 35 3 Image --
2016 12 20 06 -14.3 113.9 995 35 3 Image --
2016 12 20 12 -14.4 114.1 990 40 3 Image --
2016 12 20 18 -14.5 114.0 990 40 3 Image --
2016 12 21 00 -14.6 113.9 989 45 3 Image --
2016 12 21 06 -14.4 114.0 987 45 3 Image --
2016 12 21 12 -14.1 114.2 987 45 3 Image --
2016 12 21 18 -14.4 114.3 989 40 3 Image --
2016 12 22 00 -14.2 114.4 989 35 3 Image --
2016 12 22 06 -14.0 114.2 990 35 3 Image --
2016 12 22 12 -14.2 114.3 990 35 3 Image --
2016 12 22 18 -14.1 114.5 990 35 3 Image --
2016 12 23 00 -14.2 115.3 990 30 2 Image --
2016 12 23 06 -14.6 116.1 990 30 2 Image --
2016 12 23 12 -14.7 116.8 990 30 2 Image --
2016 12 23 18 -15.0 117.7 990 30 2 Image --
2016 12 24 00 -15.3 118.7 994 30 2 Image --
2016 12 24 06 -15.9 119.7 994 30 2 Image --
2016 12 24 12 -16.3 120.8 996 25 2 Image --
2016 12 24 18 -16.8 121.9 996 25 2 Image --
2016 12 25 00 -17.1 122.6 998 25 2 Image --
2016 12 25 06 -17.6 122.6 996 20 2 Image --
< Cyclone 201706 2017 Season Cyclone 201719 >

Help